createdAt,value
2022-10-07T00:01:38.754Z,100.00
2022-10-07T00:04:05.437Z,100.00
2022-10-07T00:06:32.055Z,100.00
2022-10-07T00:08:59.869Z,100.00
2022-10-07T00:11:27.290Z,100.00
2022-10-07T00:13:55.050Z,100.00
2022-10-07T00:16:24.672Z,100.00
2022-10-07T00:18:51.940Z,100.00
2022-10-07T00:21:18.992Z,100.00
2022-10-07T00:23:46.516Z,100.00
2022-10-07T00:26:14.328Z,100.00
2022-10-07T00:28:41.171Z,100.00
2022-10-07T00:31:09.471Z,100.00
2022-10-07T00:33:37.799Z,100.00
2022-10-07T00:36:18.003Z,100.00
2022-10-07T00:38:44.515Z,100.00
2022-10-07T00:41:18.727Z,100.00
2022-10-07T00:43:45.209Z,100.00
2022-10-07T00:46:13.259Z,100.00
2022-10-07T00:48:39.738Z,100.00
2022-10-07T00:51:06.369Z,100.00
2022-10-07T00:53:33.178Z,100.00
2022-10-07T00:56:02.077Z,100.00
2022-10-07T00:58:32.339Z,100.00
2022-10-07T01:00:58.905Z,100.00
2022-10-07T01:03:25.389Z,100.00
2022-10-07T01:05:51.826Z,100.00
2022-10-07T01:08:18.355Z,100.00
2022-10-07T01:10:48.973Z,100.00
2022-10-07T01:13:35.840Z,100.00
2022-10-07T01:16:12.772Z,100.00
2022-10-07T01:18:52.779Z,100.00
2022-10-07T01:21:22.235Z,100.00
2022-10-07T01:23:51.717Z,100.00
2022-10-07T01:26:21.274Z,100.00
2022-10-07T01:28:47.648Z,100.00
2022-10-07T01:31:16.917Z,100.00
2022-10-07T01:33:43.451Z,100.00
2022-10-07T01:36:10.914Z,100.00
2022-10-07T01:38:38.187Z,100.00
2022-10-07T01:41:15.209Z,100.00
2022-10-07T01:43:41.977Z,100.00
2022-10-07T01:46:09.892Z,100.00
2022-10-07T01:48:36.396Z,100.00
2022-10-07T01:51:02.794Z,100.00
2022-10-07T01:53:36.547Z,100.00
2022-10-07T01:56:11.945Z,100.00
2022-10-07T01:58:56.446Z,100.00
2022-10-07T02:01:26.022Z,100.00
2022-10-07T02:03:58.739Z,100.00
2022-10-07T02:06:51.797Z,100.00
2022-10-07T02:09:41.629Z,100.00
2022-10-07T02:12:15.223Z,100.00
2022-10-07T02:14:49.657Z,100.00
2022-10-07T02:17:18.263Z,100.00
2022-10-07T02:20:03.331Z,100.00
2022-10-07T02:22:29.777Z,100.00
2022-10-07T02:24:59.142Z,100.00
2022-10-07T02:27:28.116Z,100.00
2022-10-07T02:29:55.134Z,100.00
2022-10-07T02:32:22.388Z,100.00
2022-10-07T02:34:49.084Z,100.00
2022-10-07T02:37:19.420Z,100.00
2022-10-07T02:39:46.816Z,100.00
2022-10-07T02:42:16.824Z,100.00
2022-10-07T02:44:56.535Z,100.00
2022-10-07T02:47:41.210Z,100.00
2022-10-07T02:50:08.738Z,100.00
2022-10-07T02:52:35.195Z,100.00
2022-10-07T02:55:03.791Z,100.00
2022-10-07T02:57:31.675Z,100.00
2022-10-07T02:59:58.055Z,100.00
2022-10-07T03:02:30.315Z,100.00
2022-10-07T03:04:57.543Z,100.00
2022-10-07T03:07:25.100Z,100.00
2022-10-07T03:09:51.507Z,100.00
2022-10-07T03:12:17.929Z,100.00
2022-10-07T03:14:44.998Z,100.00
2022-10-07T03:17:11.421Z,100.00
2022-10-07T03:19:38.125Z,100.00
2022-10-07T03:22:04.582Z,100.00
2022-10-07T03:24:31.192Z,100.00
2022-10-07T03:26:57.666Z,100.00
2022-10-07T03:29:26.165Z,100.00
2022-10-07T03:31:55.418Z,100.00
2022-10-07T03:34:23.162Z,100.00
2022-10-07T03:36:49.601Z,100.00
2022-10-07T03:39:15.971Z,100.00
2022-10-07T03:41:42.406Z,100.00
2022-10-07T03:44:08.851Z,100.00
2022-10-07T03:46:35.350Z,100.00
2022-10-07T03:49:02.257Z,100.00
2022-10-07T03:51:28.687Z,100.00
2022-10-07T03:53:57.480Z,100.00
2022-10-07T03:56:24.140Z,100.00
2022-10-07T03:58:50.587Z,100.00
2022-10-07T04:01:17.534Z,100.00
2022-10-07T04:03:43.975Z,100.00
2022-10-07T04:06:10.438Z,100.00
2022-10-07T04:08:36.995Z,100.00
2022-10-07T04:11:03.889Z,100.00
2022-10-07T04:13:30.309Z,100.00
2022-10-07T04:15:56.811Z,100.00
2022-10-07T04:18:23.487Z,100.00
2022-10-07T04:20:49.925Z,100.00
2022-10-07T04:23:16.467Z,100.00
2022-10-07T04:25:43.845Z,100.00
2022-10-07T04:28:17.838Z,100.00
2022-10-07T04:30:44.380Z,100.00
2022-10-07T04:33:11.516Z,100.00
2022-10-07T04:35:38.976Z,100.00
2022-10-07T04:38:07.880Z,100.00
2022-10-07T04:40:34.250Z,100.00
2022-10-07T04:43:20.936Z,100.00
2022-10-07T04:45:47.926Z,100.00
2022-10-07T04:48:14.663Z,100.00
2022-10-07T04:50:41.102Z,100.00
2022-10-07T04:53:08.072Z,100.00
2022-10-07T04:55:38.171Z,100.00
2022-10-07T04:58:04.599Z,100.00
2022-10-07T05:00:31.313Z,100.00
2022-10-07T05:02:57.748Z,100.00
2022-10-07T05:05:25.835Z,100.00
2022-10-07T05:07:52.602Z,100.00
2022-10-07T05:10:19.276Z,100.00
2022-10-07T05:12:45.731Z,100.00
2022-10-07T05:15:12.330Z,100.00
2022-10-07T05:17:41.133Z,100.00
2022-10-07T05:20:08.460Z,100.00
2022-10-07T05:22:34.873Z,100.00
2022-10-07T05:25:01.292Z,100.00
2022-10-07T05:27:27.707Z,100.00
2022-10-07T05:29:54.100Z,100.00
2022-10-07T05:32:21.246Z,100.00
2022-10-07T05:34:47.683Z,100.00
2022-10-07T05:37:15.211Z,100.00
2022-10-07T05:39:41.623Z,100.00
2022-10-07T05:42:08.198Z,100.00
2022-10-07T05:44:34.639Z,100.00
2022-10-07T05:47:02.066Z,100.00
2022-10-07T05:49:28.462Z,100.00
2022-10-07T05:51:54.927Z,100.00
2022-10-07T05:54:21.700Z,100.00
2022-10-07T05:56:48.436Z,100.00
2022-10-07T05:59:14.858Z,100.00
2022-10-07T06:01:42.856Z,100.00
2022-10-07T06:04:09.379Z,100.00
2022-10-07T06:06:35.884Z,100.00
2022-10-07T06:09:20.871Z,100.00
2022-10-07T06:12:06.042Z,100.00
2022-10-07T06:14:32.426Z,100.00
2022-10-07T06:16:58.964Z,100.00
2022-10-07T06:19:25.520Z,100.00
2022-10-07T06:21:52.063Z,100.00
2022-10-07T06:24:18.494Z,100.00
2022-10-07T06:26:44.948Z,100.00
2022-10-07T06:29:11.381Z,100.00
2022-10-07T06:31:37.796Z,100.00
2022-10-07T06:34:04.274Z,100.00
2022-10-07T06:36:30.737Z,100.00
2022-10-07T06:38:57.191Z,100.00
2022-10-07T06:41:23.886Z,100.00
2022-10-07T06:43:50.271Z,100.00
2022-10-07T06:46:17.541Z,100.00
2022-10-07T06:48:45.909Z,100.00
2022-10-07T06:51:13.205Z,100.00
2022-10-07T06:53:39.638Z,100.00
2022-10-07T06:56:06.151Z,100.00
2022-10-07T06:58:32.778Z,100.00
2022-10-07T07:01:02.370Z,100.00
2022-10-07T07:03:29.096Z,100.00
2022-10-07T07:05:55.684Z,100.00
2022-10-07T07:08:22.743Z,100.00
2022-10-07T07:10:49.168Z,100.00
2022-10-07T07:13:15.828Z,100.00
2022-10-07T07:15:42.483Z,100.00
2022-10-07T07:18:09.337Z,100.00
2022-10-07T07:20:38.854Z,100.00
2022-10-07T07:23:05.934Z,100.00
2022-10-07T07:25:32.772Z,100.00
2022-10-07T07:28:02.367Z,100.00
2022-10-07T07:30:29.206Z,100.00
2022-10-07T07:32:55.776Z,100.00
2022-10-07T07:35:22.743Z,100.00
2022-10-07T07:37:50.397Z,100.00
2022-10-07T07:40:17.417Z,100.00
2022-10-07T07:42:45.324Z,100.00
2022-10-07T07:45:11.858Z,100.00
2022-10-07T07:47:38.386Z,100.00
2022-10-07T07:50:05.614Z,100.00
2022-10-07T07:52:32.337Z,100.00
2022-10-07T07:54:59.200Z,100.00
2022-10-07T07:57:26.316Z,100.00
2022-10-07T07:59:52.940Z,100.00
2022-10-07T08:02:20.418Z,100.00
2022-10-07T08:04:46.948Z,100.00
2022-10-07T08:07:13.402Z,100.00
2022-10-07T08:09:40.040Z,100.00
2022-10-07T08:12:06.885Z,100.00
2022-10-07T08:14:33.523Z,100.00
2022-10-07T08:17:01.078Z,100.00
2022-10-07T08:19:29.450Z,100.00
2022-10-07T08:21:56.551Z,100.00
2022-10-07T08:24:24.988Z,100.00
2022-10-07T08:26:51.803Z,100.00
2022-10-07T08:29:18.277Z,100.00
2022-10-07T08:31:44.736Z,100.00
2022-10-07T08:34:11.482Z,100.00
2022-10-07T08:36:38.071Z,100.00
2022-10-07T08:39:04.674Z,100.00
2022-10-07T08:41:36.444Z,100.00
2022-10-07T08:44:18.201Z,100.00
2022-10-07T08:47:06.527Z,100.00
2022-10-07T08:49:36.067Z,100.00
2022-10-07T08:52:21.306Z,100.00
2022-10-07T08:54:47.743Z,100.00
2022-10-07T08:57:16.284Z,100.00
2022-10-07T08:59:44.827Z,100.00
2022-10-07T09:02:20.522Z,100.00
2022-10-07T09:05:05.741Z,100.00
2022-10-07T09:07:40.369Z,100.00
2022-10-07T09:10:09.847Z,100.00
2022-10-07T09:12:37.224Z,100.00
2022-10-07T09:15:03.914Z,100.00
2022-10-07T09:17:35.918Z,100.00
2022-10-07T09:20:04.585Z,100.00
2022-10-07T09:22:31.889Z,100.00
2022-10-07T09:25:17.111Z,79.49
2022-10-07T09:27:43.825Z,69.27
2022-10-07T09:30:12.971Z,73.27
2022-10-07T09:32:40.783Z,63.79
2022-10-07T09:35:11.559Z,63.56
2022-10-07T09:37:37.927Z,65.11
2022-10-07T09:40:20.705Z,65.78
2022-10-07T09:42:48.563Z,61.92
2022-10-07T09:45:22.271Z,63.68
2022-10-07T09:47:52.801Z,59.03
2022-10-07T09:50:39.639Z,53.91
2022-10-07T09:53:12.274Z,54.56
2022-10-07T09:55:40.159Z,56.01
2022-10-07T09:58:09.134Z,48.74
2022-10-07T10:00:41.439Z,48.91
2022-10-07T10:03:07.935Z,45.82
2022-10-07T10:05:35.547Z,45.56
2022-10-07T10:08:03.914Z,47.10
2022-10-07T10:10:31.427Z,43.61
2022-10-07T10:12:58.500Z,45.13
2022-10-07T10:15:26.836Z,42.83
2022-10-07T10:17:54.790Z,43.58
2022-10-07T10:20:24.232Z,43.36
2022-10-07T10:22:50.963Z,41.35
2022-10-07T10:25:56.446Z,41.84
2022-10-07T10:28:22.915Z,40.39
2022-10-07T10:30:55.619Z,40.38
2022-10-07T10:33:32.756Z,40.23
2022-10-07T10:36:05.287Z,37.84
2022-10-07T10:38:33.255Z,35.89
2022-10-07T10:41:04.194Z,34.65
2022-10-07T10:43:37.701Z,33.65
2022-10-07T10:46:22.369Z,33.73
2022-10-07T10:49:09.464Z,33.97
2022-10-07T10:51:53.227Z,33.15
2022-10-07T10:54:24.762Z,30.31
2022-10-07T10:57:29.234Z,28.89
2022-10-07T11:00:15.239Z,28.43
2022-10-07T11:02:53.869Z,27.37
2022-10-07T11:05:24.142Z,26.28
2022-10-07T11:07:51.397Z,26.09
2022-10-07T11:10:24.689Z,25.42
2022-10-07T11:12:54.670Z,24.71
2022-10-07T11:15:37.257Z,26.95
2022-10-07T11:18:08.549Z,28.49
2022-10-07T11:20:43.816Z,26.90
2022-10-07T11:23:24.916Z,27.52
2022-10-07T11:26:00.256Z,24.83
2022-10-07T11:28:27.274Z,24.19
2022-10-07T11:31:05.424Z,23.46
2022-10-07T11:33:41.517Z,23.36
2022-10-07T11:36:28.187Z,23.48
2022-10-07T11:38:54.603Z,22.45
2022-10-07T11:41:33.872Z,23.40
2022-10-07T11:44:01.783Z,22.80
2022-10-07T11:46:31.959Z,24.91
2022-10-07T11:49:00.887Z,24.67
2022-10-07T11:51:29.256Z,24.71
2022-10-07T11:53:56.098Z,25.01
2022-10-07T11:56:23.648Z,24.39
2022-10-07T11:58:58.066Z,23.45
2022-10-07T12:01:30.711Z,23.63
2022-10-07T12:04:15.571Z,22.92
2022-10-07T12:07:04.018Z,22.99
2022-10-07T12:09:49.202Z,21.98
2022-10-07T12:12:15.643Z,21.45
2022-10-07T12:14:43.021Z,20.81
2022-10-07T12:17:22.380Z,20.88
2022-10-07T12:20:06.937Z,20.21
2022-10-07T12:22:33.347Z,21.54
2022-10-07T12:25:18.498Z,22.02
2022-10-07T12:27:46.244Z,20.49
2022-10-07T12:30:32.601Z,19.88
2022-10-07T12:33:01.022Z,21.55
2022-10-07T12:35:32.369Z,21.54
2022-10-07T12:38:03.097Z,19.95
2022-10-07T12:40:30.013Z,19.24
2022-10-07T12:43:08.935Z,21.36
2022-10-07T12:45:37.150Z,19.91
2022-10-07T12:48:03.677Z,19.33
2022-10-07T12:50:31.731Z,18.42
2022-10-07T12:52:58.809Z,17.50
2022-10-07T12:55:30.526Z,18.27
2022-10-07T12:58:16.932Z,18.59
2022-10-07T13:00:54.644Z,20.53
2022-10-07T13:03:27.396Z,20.94
2022-10-07T13:06:08.924Z,23.14
2022-10-07T13:08:35.310Z,26.16
2022-10-07T13:11:20.605Z,29.09
2022-10-07T13:13:46.958Z,31.22
2022-10-07T13:16:15.670Z,32.66
2022-10-07T13:18:45.032Z,35.27
2022-10-07T13:21:13.027Z,36.52
2022-10-07T13:23:39.407Z,35.65
2022-10-07T13:26:05.821Z,35.48
2022-10-07T13:28:38.278Z,35.90
2022-10-07T13:31:11.914Z,35.85
2022-10-07T13:33:38.375Z,36.96
2022-10-07T13:36:14.023Z,37.67
2022-10-07T13:38:40.461Z,38.78
2022-10-07T13:41:09.272Z,39.84
2022-10-07T13:43:36.091Z,36.95
2022-10-07T13:46:02.549Z,35.66
2022-10-07T13:48:31.463Z,37.70
2022-10-07T13:50:58.553Z,39.52
2022-10-07T13:53:34.813Z,42.80
2022-10-07T13:56:21.952Z,43.66
2022-10-07T13:58:48.368Z,46.57
2022-10-07T14:01:14.896Z,47.26
2022-10-07T14:04:00.703Z,47.28
2022-10-07T14:06:37.848Z,47.79
2022-10-07T14:09:04.271Z,46.59
2022-10-07T14:11:30.840Z,47.85
2022-10-07T14:13:59.475Z,44.85
2022-10-07T14:16:26.439Z,43.34
2022-10-07T14:18:52.932Z,42.85
2022-10-07T14:21:19.357Z,42.66
2022-10-07T14:23:46.950Z,43.50
2022-10-07T14:26:15.151Z,43.39
2022-10-07T14:28:42.265Z,45.11
2022-10-07T14:31:27.667Z,47.30
2022-10-07T14:34:12.845Z,48.14
2022-10-07T14:36:49.289Z,48.19
2022-10-07T14:39:23.018Z,47.04
2022-10-07T14:41:49.412Z,49.03
2022-10-07T14:44:18.269Z,51.02
2022-10-07T14:46:44.695Z,51.99
2022-10-07T14:49:11.186Z,51.09
2022-10-07T14:51:37.668Z,51.68
2022-10-07T14:54:05.894Z,52.12
2022-10-07T14:56:33.755Z,54.76
2022-10-07T14:59:00.491Z,54.44
2022-10-07T15:01:28.307Z,56.47
2022-10-07T15:03:54.909Z,56.32
2022-10-07T15:06:21.582Z,58.12
2022-10-07T15:08:48.287Z,60.05
2022-10-07T15:11:15.535Z,64.51
2022-10-07T15:13:43.172Z,60.01
2022-10-07T15:16:13.132Z,59.73
2022-10-07T15:18:43.407Z,54.46
2022-10-07T15:21:12.765Z,56.23
2022-10-07T15:23:39.212Z,57.43
2022-10-07T15:26:05.827Z,57.10
2022-10-07T15:28:33.243Z,60.52
2022-10-07T15:31:06.809Z,62.59
2022-10-07T15:33:33.618Z,62.91
2022-10-07T15:36:00.188Z,64.76
2022-10-07T15:38:27.000Z,65.27
2022-10-07T15:40:54.468Z,65.60
2022-10-07T15:43:20.945Z,65.08
2022-10-07T15:45:49.133Z,67.52
2022-10-07T15:48:16.268Z,67.42
2022-10-07T15:50:49.285Z,66.24
2022-10-07T15:53:16.491Z,69.04
2022-10-07T15:55:56.193Z,69.40
2022-10-07T15:58:23.302Z,71.07
2022-10-07T16:01:03.245Z,73.31
2022-10-07T16:03:39.794Z,72.56
2022-10-07T16:06:17.167Z,71.61
2022-10-07T16:08:43.586Z,75.38
2022-10-07T16:11:10.897Z,76.69
2022-10-07T16:13:37.658Z,76.18
2022-10-07T16:16:06.455Z,76.03
2022-10-07T16:18:36.971Z,83.42
2022-10-07T16:21:07.359Z,82.19
2022-10-07T16:23:34.384Z,84.61
2022-10-07T16:26:11.018Z,85.31
2022-10-07T16:28:59.673Z,84.42
2022-10-07T16:31:26.174Z,84.15
2022-10-07T16:33:53.007Z,83.26
2022-10-07T16:36:20.739Z,91.65
2022-10-07T16:38:47.307Z,94.72
2022-10-07T16:41:13.976Z,94.96
2022-10-07T16:43:40.455Z,100.00
2022-10-07T16:46:08.787Z,100.00
2022-10-07T16:48:38.975Z,100.00
2022-10-07T16:51:08.560Z,100.00
2022-10-07T16:53:34.988Z,100.00
2022-10-07T16:56:02.251Z,100.00
2022-10-07T16:58:28.690Z,100.00
2022-10-07T17:01:00.224Z,100.00
2022-10-07T17:03:26.637Z,100.00
2022-10-07T17:05:56.703Z,100.00
2022-10-07T17:08:23.245Z,100.00
2022-10-07T17:10:49.662Z,100.00
2022-10-07T17:13:18.307Z,100.00
2022-10-07T17:15:49.115Z,100.00
2022-10-07T17:18:18.655Z,100.00
2022-10-07T17:20:50.869Z,100.00
2022-10-07T17:23:17.432Z,100.00
2022-10-07T17:25:46.377Z,100.00
2022-10-07T17:28:13.450Z,100.00
2022-10-07T17:30:40.065Z,100.00
2022-10-07T17:33:07.036Z,100.00
2022-10-07T17:35:33.831Z,100.00
2022-10-07T17:38:00.725Z,100.00
2022-10-07T17:40:30.653Z,100.00
2022-10-07T17:42:59.474Z,100.00
2022-10-07T17:45:25.883Z,100.00
2022-10-07T17:47:54.455Z,100.00
2022-10-07T17:50:20.880Z,100.00
2022-10-07T17:52:47.282Z,100.00
2022-10-07T17:55:13.718Z,100.00
2022-10-07T17:57:40.148Z,100.00
2022-10-07T18:00:06.989Z,100.00
2022-10-07T18:02:33.784Z,100.00
2022-10-07T18:05:00.415Z,100.00
2022-10-07T18:07:26.971Z,100.00
2022-10-07T18:09:53.437Z,100.00
2022-10-07T18:12:49.138Z,100.00
2022-10-07T18:15:21.260Z,100.00
2022-10-07T18:17:50.799Z,100.00
2022-10-07T18:20:25.325Z,100.00
2022-10-07T18:22:55.743Z,100.00
2022-10-07T18:25:22.280Z,100.00
2022-10-07T18:27:48.951Z,100.00
2022-10-07T18:30:15.612Z,100.00
2022-10-07T18:32:42.083Z,100.00
2022-10-07T18:35:08.626Z,100.00
2022-10-07T18:37:36.128Z,100.00
2022-10-07T18:40:02.535Z,100.00
2022-10-07T18:42:28.962Z,100.00
2022-10-07T18:44:55.397Z,100.00
2022-10-07T18:47:21.817Z,100.00
2022-10-07T18:49:48.220Z,100.00
2022-10-07T18:52:14.628Z,100.00
2022-10-07T18:54:41.051Z,100.00
2022-10-07T18:57:07.516Z,100.00
2022-10-07T18:59:33.996Z,100.00
2022-10-07T19:02:00.587Z,100.00
2022-10-07T19:04:27.030Z,100.00
2022-10-07T19:06:53.477Z,100.00
2022-10-07T19:09:20.518Z,100.00
2022-10-07T19:11:47.099Z,100.00
2022-10-07T19:14:13.816Z,100.00
2022-10-07T19:16:41.413Z,100.00
2022-10-07T19:19:08.606Z,100.00
2022-10-07T19:21:35.903Z,100.00
2022-10-07T19:24:02.760Z,100.00
2022-10-07T19:26:31.111Z,100.00
2022-10-07T19:28:57.533Z,100.00
2022-10-07T19:31:24.090Z,100.00
2022-10-07T19:33:51.707Z,100.00
2022-10-07T19:36:19.057Z,100.00
2022-10-07T19:38:52.312Z,100.00
2022-10-07T19:41:20.266Z,100.00
2022-10-07T19:43:46.795Z,100.00
2022-10-07T19:46:13.449Z,100.00
2022-10-07T19:48:40.015Z,100.00
2022-10-07T19:51:10.767Z,100.00
2022-10-07T19:53:37.235Z,100.00
2022-10-07T19:56:04.859Z,100.00
2022-10-07T19:58:31.754Z,100.00
2022-10-07T20:01:08.512Z,100.00
2022-10-07T20:03:35.263Z,100.00
2022-10-07T20:06:08.999Z,100.00
2022-10-07T20:08:36.384Z,100.00
2022-10-07T20:11:02.961Z,100.00
2022-10-07T20:13:30.259Z,100.00
2022-10-07T20:16:06.107Z,100.00
2022-10-07T20:18:33.067Z,100.00
2022-10-07T20:21:00.345Z,100.00
2022-10-07T20:23:26.923Z,100.00
2022-10-07T20:25:53.408Z,100.00
2022-10-07T20:28:19.926Z,100.00
2022-10-07T20:30:46.318Z,100.00
2022-10-07T20:33:12.940Z,100.00
2022-10-07T20:35:39.621Z,100.00
2022-10-07T20:38:06.028Z,100.00
2022-10-07T20:40:51.207Z,100.00
2022-10-07T20:43:17.618Z,100.00
2022-10-07T20:45:56.383Z,100.00
2022-10-07T20:48:23.109Z,100.00
2022-10-07T20:50:49.842Z,100.00
2022-10-07T20:53:16.257Z,100.00
2022-10-07T20:55:42.618Z,100.00
2022-10-07T20:58:09.023Z,100.00
2022-10-07T21:00:35.407Z,100.00
2022-10-07T21:03:01.993Z,100.00
2022-10-07T21:05:29.994Z,100.00
2022-10-07T21:07:56.412Z,100.00
2022-10-07T21:10:22.917Z,100.00
2022-10-07T21:12:49.878Z,100.00
2022-10-07T21:15:16.346Z,100.00
2022-10-07T21:17:44.489Z,100.00
2022-10-07T21:20:10.972Z,100.00
2022-10-07T21:22:37.502Z,100.00
2022-10-07T21:25:04.107Z,100.00
2022-10-07T21:27:30.515Z,100.00
2022-10-07T21:29:56.943Z,100.00
2022-10-07T21:32:23.404Z,100.00
2022-10-07T21:34:49.841Z,100.00
2022-10-07T21:37:16.264Z,100.00
2022-10-07T21:39:42.684Z,100.00
2022-10-07T21:42:09.090Z,100.00
2022-10-07T21:44:35.683Z,100.00
2022-10-07T21:47:02.156Z,100.00
2022-10-07T21:49:28.576Z,100.00
2022-10-07T21:51:55.018Z,100.00
2022-10-07T21:54:21.503Z,100.00
2022-10-07T21:56:48.042Z,100.00
2022-10-07T21:59:14.535Z,100.00
2022-10-07T22:01:42.420Z,100.00
2022-10-07T22:04:16.052Z,100.00
2022-10-07T22:07:01.225Z,100.00
2022-10-07T22:09:27.684Z,100.00
2022-10-07T22:11:54.117Z,100.00
2022-10-07T22:14:20.678Z,100.00
2022-10-07T22:16:49.634Z,100.00
2022-10-07T22:19:17.600Z,100.00
2022-10-07T22:21:45.623Z,100.00
2022-10-07T22:24:12.629Z,100.00
2022-10-07T22:26:40.654Z,100.00
2022-10-07T22:29:09.468Z,100.00
2022-10-07T22:31:36.203Z,100.00
2022-10-07T22:34:02.645Z,100.00
2022-10-07T22:36:29.208Z,100.00
2022-10-07T22:39:01.619Z,100.00
2022-10-07T22:41:29.161Z,100.00
2022-10-07T22:43:55.677Z,100.00
2022-10-07T22:46:26.581Z,100.00
2022-10-07T22:48:54.130Z,100.00
2022-10-07T22:51:20.585Z,100.00
2022-10-07T22:53:50.618Z,100.00
2022-10-07T22:56:17.631Z,100.00
2022-10-07T22:58:44.557Z,100.00
2022-10-07T23:01:13.863Z,100.00
2022-10-07T23:03:43.711Z,100.00
2022-10-07T23:06:10.942Z,100.00
2022-10-07T23:08:38.441Z,100.00
2022-10-07T23:11:05.137Z,100.00
2022-10-07T23:13:32.126Z,100.00
2022-10-07T23:16:02.778Z,100.00
2022-10-07T23:18:29.533Z,100.00
2022-10-07T23:21:06.262Z,100.00
2022-10-07T23:23:36.363Z,100.00
2022-10-07T23:26:03.405Z,100.00
2022-10-07T23:28:30.338Z,100.00
2022-10-07T23:30:58.888Z,100.00
2022-10-07T23:33:25.382Z,100.00
2022-10-07T23:35:55.341Z,100.00
2022-10-07T23:38:21.750Z,100.00
2022-10-07T23:40:48.450Z,100.00
2022-10-07T23:43:14.865Z,100.00
2022-10-07T23:45:41.288Z,100.00
2022-10-07T23:48:07.701Z,100.00
2022-10-07T23:50:34.870Z,100.00
2022-10-07T23:53:01.301Z,100.00
2022-10-07T23:55:28.536Z,100.00
2022-10-07T23:57:55.110Z,100.00
